sensor_id;sensor_type;location;lat;lon;timestamp;P1;durP1;ratioP1;P2;durP2;ratioP2
7997;SDS011;4044;49.814;7.828;2024-03-29T00:00:36;2.57;;;2.10;;
7997;SDS011;4044;49.814;7.828;2024-03-29T00:03:02;4.07;;;2.73;;
7997;SDS011;4044;49.814;7.828;2024-03-29T00:05:27;2.97;;;2.50;;
7997;SDS011;4044;49.814;7.828;2024-03-29T00:07:53;5.60;;;2.50;;
7997;SDS011;4044;49.814;7.828;2024-03-29T00:10:18;2.90;;;2.50;;
7997;SDS011;4044;49.814;7.828;2024-03-29T00:12:44;3.23;;;2.80;;
7997;SDS011;4044;49.814;7.828;2024-03-29T00:15:10;6.47;;;2.33;;
7997;SDS011;4044;49.814;7.828;2024-03-29T00:17:35;3.33;;;2.50;;
7997;SDS011;4044;49.814;7.828;2024-03-29T00:20:01;2.33;;;2.20;;
7997;SDS011;4044;49.814;7.828;2024-03-29T00:22:28;4.23;;;2.70;;
7997;SDS011;4044;49.814;7.828;2024-03-29T00:24:53;5.33;;;2.93;;
7997;SDS011;4044;49.814;7.828;2024-03-29T00:27:19;7.43;;;2.97;;
7997;SDS011;4044;49.814;7.828;2024-03-29T00:29:44;5.23;;;2.50;;
7997;SDS011;4044;49.814;7.828;2024-03-29T00:32:12;2.53;;;2.33;;
7997;SDS011;4044;49.814;7.828;2024-03-29T00:34:37;4.43;;;2.83;;
7997;SDS011;4044;49.814;7.828;2024-03-29T00:37:03;4.10;;;2.90;;
7997;SDS011;4044;49.814;7.828;2024-03-29T00:39:29;4.10;;;2.70;;
7997;SDS011;4044;49.814;7.828;2024-03-29T00:41:54;2.57;;;2.37;;
7997;SDS011;4044;49.814;7.828;2024-03-29T00:44:20;4.13;;;3.03;;
7997;SDS011;4044;49.814;7.828;2024-03-29T00:46:46;3.93;;;3.47;;
7997;SDS011;4044;49.814;7.828;2024-03-29T00:49:12;4.30;;;3.57;;
7997;SDS011;4044;49.814;7.828;2024-03-29T00:51:38;3.93;;;3.03;;
7997;SDS011;4044;49.814;7.828;2024-03-29T00:54:04;4.63;;;3.37;;
7997;SDS011;4044;49.814;7.828;2024-03-29T00:56:30;3.10;;;2.80;;
7997;SDS011;4044;49.814;7.828;2024-03-29T00:58:56;3.23;;;2.93;;
7997;SDS011;4044;49.814;7.828;2024-03-29T01:01:21;5.93;;;3.30;;
7997;SDS011;4044;49.814;7.828;2024-03-29T01:03:47;5.57;;;3.10;;
7997;SDS011;4044;49.814;7.828;2024-03-29T01:06:12;3.67;;;2.97;;
7997;SDS011;4044;49.814;7.828;2024-03-29T01:08:38;4.13;;;2.80;;
7997;SDS011;4044;49.814;7.828;2024-03-29T01:11:03;3.37;;;2.63;;
7997;SDS011;4044;49.814;7.828;2024-03-29T01:13:29;3.90;;;2.73;;
7997;SDS011;4044;49.814;7.828;2024-03-29T01:15:55;3.13;;;2.50;;
7997;SDS011;4044;49.814;7.828;2024-03-29T01:18:20;3.37;;;2.50;;
7997;SDS011;4044;49.814;7.828;2024-03-29T01:20:46;3.27;;;2.70;;
7997;SDS011;4044;49.814;7.828;2024-03-29T01:23:11;4.57;;;2.70;;
7997;SDS011;4044;49.814;7.828;2024-03-29T01:25:37;4.10;;;3.00;;
7997;SDS011;4044;49.814;7.828;2024-03-29T01:28:02;3.30;;;2.93;;
7997;SDS011;4044;49.814;7.828;2024-03-29T01:30:29;3.10;;;2.80;;
7997;SDS011;4044;49.814;7.828;2024-03-29T01:32:55;4.07;;;2.63;;
7997;SDS011;4044;49.814;7.828;2024-03-29T01:35:20;4.00;;;2.90;;
7997;SDS011;4044;49.814;7.828;2024-03-29T01:37:46;4.77;;;2.90;;
7997;SDS011;4044;49.814;7.828;2024-03-29T01:40:11;3.13;;;2.80;;
7997;SDS011;4044;49.814;7.828;2024-03-29T01:42:37;3.47;;;2.60;;
7997;SDS011;4044;49.814;7.828;2024-03-29T01:45:06;3.40;;;3.03;;
7997;SDS011;4044;49.814;7.828;2024-03-29T01:47:33;3.30;;;2.43;;
7997;SDS011;4044;49.814;7.828;2024-03-29T01:49:58;4.17;;;2.60;;
7997;SDS011;4044;49.814;7.828;2024-03-29T01:52:24;3.50;;;2.80;;
7997;SDS011;4044;49.814;7.828;2024-03-29T01:54:52;5.37;;;3.00;;
7997;SDS011;4044;49.814;7.828;2024-03-29T01:57:18;4.30;;;3.10;;
7997;SDS011;4044;49.814;7.828;2024-03-29T01:59:44;3.07;;;2.60;;
7997;SDS011;4044;49.814;7.828;2024-03-29T02:02:13;4.50;;;2.80;;
7997;SDS011;4044;49.814;7.828;2024-03-29T02:04:39;4.00;;;2.83;;
7997;SDS011;4044;49.814;7.828;2024-03-29T02:07:06;3.30;;;2.70;;
7997;SDS011;4044;49.814;7.828;2024-03-29T02:09:32;4.40;;;3.00;;
7997;SDS011;4044;49.814;7.828;2024-03-29T02:11:58;3.13;;;2.70;;
7997;SDS011;4044;49.814;7.828;2024-03-29T02:14:24;3.73;;;2.90;;
7997;SDS011;4044;49.814;7.828;2024-03-29T02:16:49;3.33;;;2.80;;
7997;SDS011;4044;49.814;7.828;2024-03-29T02:19:15;3.50;;;2.80;;
7997;SDS011;4044;49.814;7.828;2024-03-29T02:21:41;3.10;;;2.53;;
7997;SDS011;4044;49.814;7.828;2024-03-29T02:24:10;3.80;;;2.67;;
7997;SDS011;4044;49.814;7.828;2024-03-29T02:26:37;3.50;;;3.00;;
7997;SDS011;4044;49.814;7.828;2024-03-29T02:29:06;6.33;;;3.13;;
7997;SDS011;4044;49.814;7.828;2024-03-29T02:31:32;3.50;;;3.03;;
7997;SDS011;4044;49.814;7.828;2024-03-29T02:33:58;3.63;;;3.17;;
7997;SDS011;4044;49.814;7.828;2024-03-29T02:36:23;3.97;;;3.10;;
7997;SDS011;4044;49.814;7.828;2024-03-29T02:38:49;3.43;;;2.77;;
7997;SDS011;4044;49.814;7.828;2024-03-29T02:41:14;3.77;;;3.03;;
7997;SDS011;4044;49.814;7.828;2024-03-29T02:43:40;3.63;;;2.97;;
7997;SDS011;4044;49.814;7.828;2024-03-29T02:46:06;3.43;;;2.80;;
7997;SDS011;4044;49.814;7.828;2024-03-29T02:48:31;3.70;;;3.20;;
7997;SDS011;4044;49.814;7.828;2024-03-29T02:50:57;6.23;;;3.23;;
7997;SDS011;4044;49.814;7.828;2024-03-29T02:53:22;3.23;;;2.90;;
7997;SDS011;4044;49.814;7.828;2024-03-29T02:55:48;4.57;;;2.77;;
7997;SDS011;4044;49.814;7.828;2024-03-29T02:58:13;3.53;;;2.80;;
7997;SDS011;4044;49.814;7.828;2024-03-29T03:00:39;7.43;;;3.00;;
7997;SDS011;4044;49.814;7.828;2024-03-29T03:03:04;3.23;;;2.87;;
7997;SDS011;4044;49.814;7.828;2024-03-29T03:05:30;4.23;;;3.40;;
7997;SDS011;4044;49.814;7.828;2024-03-29T03:07:55;3.43;;;2.80;;
7997;SDS011;4044;49.814;7.828;2024-03-29T03:10:48;4.47;;;3.03;;
7997;SDS011;4044;49.814;7.828;2024-03-29T03:13:27;4.33;;;3.20;;
7997;SDS011;4044;49.814;7.828;2024-03-29T03:15:53;3.83;;;3.03;;
7997;SDS011;4044;49.814;7.828;2024-03-29T03:18:19;4.73;;;3.10;;
7997;SDS011;4044;49.814;7.828;2024-03-29T03:20:53;4.37;;;3.27;;
7997;SDS011;4044;49.814;7.828;2024-03-29T03:23:19;7.93;;;3.57;;
7997;SDS011;4044;49.814;7.828;2024-03-29T03:25:58;4.27;;;3.20;;
7997;SDS011;4044;49.814;7.828;2024-03-29T03:28:25;4.47;;;3.20;;
7997;SDS011;4044;49.814;7.828;2024-03-29T03:30:52;7.53;;;3.50;;
7997;SDS011;4044;49.814;7.828;2024-03-29T03:33:18;4.47;;;3.07;;
7997;SDS011;4044;49.814;7.828;2024-03-29T03:35:44;5.53;;;3.10;;
7997;SDS011;4044;49.814;7.828;2024-03-29T03:38:10;7.93;;;3.93;;
7997;SDS011;4044;49.814;7.828;2024-03-29T03:40:36;3.93;;;3.20;;
7997;SDS011;4044;49.814;7.828;2024-03-29T03:43:02;5.60;;;3.60;;
7997;SDS011;4044;49.814;7.828;2024-03-29T03:45:28;4.97;;;3.03;;
7997;SDS011;4044;49.814;7.828;2024-03-29T03:47:58;5.03;;;3.70;;
7997;SDS011;4044;49.814;7.828;2024-03-29T03:50:23;4.80;;;3.63;;
7997;SDS011;4044;49.814;7.828;2024-03-29T03:52:49;4.73;;;3.77;;
7997;SDS011;4044;49.814;7.828;2024-03-29T03:55:14;6.83;;;3.57;;
7997;SDS011;4044;49.814;7.828;2024-03-29T03:57:40;4.50;;;3.40;;
7997;SDS011;4044;49.814;7.828;2024-03-29T04:00:06;4.33;;;3.07;;
7997;SDS011;4044;49.814;7.828;2024-03-29T04:02:32;5.73;;;3.37;;
7997;SDS011;4044;49.814;7.828;2024-03-29T04:04:57;6.47;;;3.67;;
7997;SDS011;4044;49.814;7.828;2024-03-29T04:07:23;3.77;;;3.47;;
7997;SDS011;4044;49.814;7.828;2024-03-29T04:09:52;7.17;;;3.67;;
7997;SDS011;4044;49.814;7.828;2024-03-29T04:12:18;4.57;;;3.53;;
7997;SDS011;4044;49.814;7.828;2024-03-29T04:14:43;3.80;;;3.40;;
7997;SDS011;4044;49.814;7.828;2024-03-29T04:17:09;5.73;;;4.00;;
7997;SDS011;4044;49.814;7.828;2024-03-29T04:19:35;5.40;;;3.77;;
7997;SDS011;4044;49.814;7.828;2024-03-29T04:22:01;5.07;;;3.33;;
7997;SDS011;4044;49.814;7.828;2024-03-29T04:24:27;6.63;;;3.83;;
7997;SDS011;4044;49.814;7.828;2024-03-29T04:26:53;6.37;;;3.70;;
7997;SDS011;4044;49.814;7.828;2024-03-29T04:29:19;4.77;;;4.03;;
7997;SDS011;4044;49.814;7.828;2024-03-29T04:31:47;10.67;;;4.30;;
7997;SDS011;4044;49.814;7.828;2024-03-29T04:34:13;5.83;;;3.83;;
7997;SDS011;4044;49.814;7.828;2024-03-29T04:36:38;6.30;;;4.10;;
7997;SDS011;4044;49.814;7.828;2024-03-29T04:39:04;5.33;;;4.20;;
7997;SDS011;4044;49.814;7.828;2024-03-29T04:41:30;6.97;;;3.73;;
7997;SDS011;4044;49.814;7.828;2024-03-29T04:43:59;8.30;;;4.20;;
7997;SDS011;4044;49.814;7.828;2024-03-29T04:46:25;9.07;;;4.50;;
7997;SDS011;4044;49.814;7.828;2024-03-29T04:48:51;6.23;;;4.13;;
7997;SDS011;4044;49.814;7.828;2024-03-29T04:51:16;5.30;;;4.13;;
7997;SDS011;4044;49.814;7.828;2024-03-29T04:53:42;7.43;;;4.70;;
7997;SDS011;4044;49.814;7.828;2024-03-29T04:56:07;5.03;;;4.20;;
7997;SDS011;4044;49.814;7.828;2024-03-29T04:58:33;7.33;;;4.40;;
7997;SDS011;4044;49.814;7.828;2024-03-29T05:00:58;7.37;;;4.83;;
7997;SDS011;4044;49.814;7.828;2024-03-29T05:03:24;6.10;;;4.50;;
7997;SDS011;4044;49.814;7.828;2024-03-29T05:05:50;5.90;;;4.80;;
7997;SDS011;4044;49.814;7.828;2024-03-29T05:08:16;5.60;;;5.00;;
7997;SDS011;4044;49.814;7.828;2024-03-29T05:10:44;6.37;;;4.97;;
7997;SDS011;4044;49.814;7.828;2024-03-29T05:13:09;9.07;;;5.03;;
7997;SDS011;4044;49.814;7.828;2024-03-29T05:15:35;5.00;;;4.50;;
7997;SDS011;4044;49.814;7.828;2024-03-29T05:18:00;5.30;;;4.53;;
7997;SDS011;4044;49.814;7.828;2024-03-29T05:20:26;7.77;;;4.80;;
7997;SDS011;4044;49.814;7.828;2024-03-29T05:22:51;7.37;;;4.97;;
7997;SDS011;4044;49.814;7.828;2024-03-29T05:25:17;7.23;;;4.80;;
7997;SDS011;4044;49.814;7.828;2024-03-29T05:27:42;10.37;;;5.13;;
7997;SDS011;4044;49.814;7.828;2024-03-29T05:30:08;5.10;;;4.53;;
7997;SDS011;4044;49.814;7.828;2024-03-29T05:32:38;7.00;;;4.70;;
7997;SDS011;4044;49.814;7.828;2024-03-29T05:35:04;5.23;;;4.73;;
7997;SDS011;4044;49.814;7.828;2024-03-29T05:37:30;7.07;;;4.87;;
7997;SDS011;4044;49.814;7.828;2024-03-29T05:39:55;6.80;;;5.30;;
7997;SDS011;4044;49.814;7.828;2024-03-29T05:42:27;14.23;;;5.27;;
7997;SDS011;4044;49.814;7.828;2024-03-29T05:44:54;6.17;;;5.37;;
7997;SDS011;4044;49.814;7.828;2024-03-29T05:47:20;10.80;;;5.43;;
7997;SDS011;4044;49.814;7.828;2024-03-29T05:49:46;6.43;;;5.13;;
7997;SDS011;4044;49.814;7.828;2024-03-29T05:52:12;6.53;;;5.40;;
7997;SDS011;4044;49.814;7.828;2024-03-29T05:54:40;5.97;;;5.07;;
7997;SDS011;4044;49.814;7.828;2024-03-29T05:57:09;5.83;;;5.00;;
7997;SDS011;4044;49.814;7.828;2024-03-29T05:59:35;7.17;;;5.27;;
7997;SDS011;4044;49.814;7.828;2024-03-29T06:02:01;6.93;;;6.07;;
7997;SDS011;4044;49.814;7.828;2024-03-29T06:04:27;7.90;;;5.13;;
7997;SDS011;4044;49.814;7.828;2024-03-29T06:07:01;7.23;;;5.43;;
7997;SDS011;4044;49.814;7.828;2024-03-29T06:09:27;8.93;;;6.27;;
7997;SDS011;4044;49.814;7.828;2024-03-29T06:11:54;9.90;;;6.30;;
7997;SDS011;4044;49.814;7.828;2024-03-29T06:14:20;8.90;;;5.90;;
7997;SDS011;4044;49.814;7.828;2024-03-29T06:17:04;10.93;;;6.33;;
7997;SDS011;4044;49.814;7.828;2024-03-29T06:19:51;8.67;;;5.77;;
7997;SDS011;4044;49.814;7.828;2024-03-29T06:22:21;9.37;;;6.30;;
7997;SDS011;4044;49.814;7.828;2024-03-29T06:24:48;7.90;;;5.90;;
7997;SDS011;4044;49.814;7.828;2024-03-29T06:27:16;10.60;;;5.67;;
7997;SDS011;4044;49.814;7.828;2024-03-29T06:29:43;8.30;;;5.60;;
7997;SDS011;4044;49.814;7.828;2024-03-29T06:32:09;10.63;;;6.40;;
7997;SDS011;4044;49.814;7.828;2024-03-29T06:34:34;8.57;;;6.30;;
7997;SDS011;4044;49.814;7.828;2024-03-29T06:37:00;6.90;;;6.00;;
7997;SDS011;4044;49.814;7.828;2024-03-29T06:39:25;7.00;;;6.30;;
7997;SDS011;4044;49.814;7.828;2024-03-29T06:41:51;9.17;;;6.47;;
7997;SDS011;4044;49.814;7.828;2024-03-29T06:44:17;8.30;;;6.33;;
7997;SDS011;4044;49.814;7.828;2024-03-29T06:46:42;10.00;;;6.40;;
7997;SDS011;4044;49.814;7.828;2024-03-29T06:49:08;9.33;;;6.40;;
7997;SDS011;4044;49.814;7.828;2024-03-29T06:51:34;8.90;;;6.70;;
7997;SDS011;4044;49.814;7.828;2024-03-29T06:53:59;10.53;;;6.83;;
7997;SDS011;4044;49.814;7.828;2024-03-29T06:56:25;10.20;;;6.97;;
7997;SDS011;4044;49.814;7.828;2024-03-29T06:58:50;9.17;;;7.30;;
7997;SDS011;4044;49.814;7.828;2024-03-29T07:01:16;11.07;;;7.03;;
7997;SDS011;4044;49.814;7.828;2024-03-29T07:03:41;9.73;;;6.57;;
7997;SDS011;4044;49.814;7.828;2024-03-29T07:06:07;8.70;;;5.83;;
7997;SDS011;4044;49.814;7.828;2024-03-29T07:08:32;9.30;;;6.30;;
7997;SDS011;4044;49.814;7.828;2024-03-29T07:10:58;7.80;;;6.80;;
7997;SDS011;4044;49.814;7.828;2024-03-29T07:13:25;9.20;;;6.17;;
7997;SDS011;4044;49.814;7.828;2024-03-29T07:15:51;8.83;;;6.73;;
7997;SDS011;4044;49.814;7.828;2024-03-29T07:18:17;8.70;;;6.43;;
7997;SDS011;4044;49.814;7.828;2024-03-29T07:20:42;11.87;;;8.07;;
7997;SDS011;4044;49.814;7.828;2024-03-29T07:23:10;9.90;;;6.90;;
7997;SDS011;4044;49.814;7.828;2024-03-29T07:25:39;11.40;;;7.77;;
7997;SDS011;4044;49.814;7.828;2024-03-29T07:28:05;8.47;;;6.67;;
7997;SDS011;4044;49.814;7.828;2024-03-29T07:30:31;13.03;;;7.27;;
7997;SDS011;4044;49.814;7.828;2024-03-29T07:32:56;10.30;;;7.10;;
7997;SDS011;4044;49.814;7.828;2024-03-29T07:35:22;8.57;;;6.00;;
7997;SDS011;4044;49.814;7.828;2024-03-29T07:37:47;7.33;;;6.30;;
7997;SDS011;4044;49.814;7.828;2024-03-29T07:40:15;8.20;;;6.90;;
7997;SDS011;4044;49.814;7.828;2024-03-29T07:42:41;10.23;;;7.47;;
7997;SDS011;4044;49.814;7.828;2024-03-29T07:45:07;9.97;;;7.30;;
7997;SDS011;4044;49.814;7.828;2024-03-29T07:47:32;8.97;;;7.33;;
7997;SDS011;4044;49.814;7.828;2024-03-29T07:49:58;14.23;;;7.80;;
7997;SDS011;4044;49.814;7.828;2024-03-29T07:52:23;10.00;;;7.13;;
7997;SDS011;4044;49.814;7.828;2024-03-29T07:54:50;8.13;;;7.20;;
7997;SDS011;4044;49.814;7.828;2024-03-29T07:57:15;12.27;;;7.97;;
7997;SDS011;4044;49.814;7.828;2024-03-29T07:59:42;9.77;;;8.03;;
7997;SDS011;4044;49.814;7.828;2024-03-29T08:02:08;12.17;;;8.40;;
7997;SDS011;4044;49.814;7.828;2024-03-29T08:04:34;8.10;;;7.30;;
7997;SDS011;4044;49.814;7.828;2024-03-29T08:07:00;9.10;;;7.87;;
7997;SDS011;4044;49.814;7.828;2024-03-29T08:09:25;10.10;;;6.67;;
7997;SDS011;4044;49.814;7.828;2024-03-29T08:11:51;8.60;;;7.07;;
7997;SDS011;4044;49.814;7.828;2024-03-29T08:14:16;7.33;;;6.43;;
7997;SDS011;4044;49.814;7.828;2024-03-29T08:16:42;8.13;;;6.37;;
7997;SDS011;4044;49.814;7.828;2024-03-29T08:19:08;6.90;;;6.27;;
7997;SDS011;4044;49.814;7.828;2024-03-29T08:21:34;8.30;;;6.30;;
7997;SDS011;4044;49.814;7.828;2024-03-29T08:23:59;6.90;;;5.67;;
7997;SDS011;4044;49.814;7.828;2024-03-29T08:26:26;8.40;;;5.87;;
7997;SDS011;4044;49.814;7.828;2024-03-29T08:28:53;6.30;;;5.03;;
7997;SDS011;4044;49.814;7.828;2024-03-29T08:31:19;5.60;;;5.10;;
7997;SDS011;4044;49.814;7.828;2024-03-29T08:33:44;6.67;;;5.10;;
7997;SDS011;4044;49.814;7.828;2024-03-29T08:36:10;7.07;;;5.07;;
7997;SDS011;4044;49.814;7.828;2024-03-29T08:38:36;6.63;;;4.90;;
7997;SDS011;4044;49.814;7.828;2024-03-29T08:41:06;7.33;;;5.13;;
7997;SDS011;4044;49.814;7.828;2024-03-29T08:43:31;5.73;;;4.40;;
7997;SDS011;4044;49.814;7.828;2024-03-29T08:45:57;5.77;;;5.10;;
7997;SDS011;4044;49.814;7.828;2024-03-29T08:48:23;7.43;;;6.03;;
7997;SDS011;4044;49.814;7.828;2024-03-29T08:50:50;7.30;;;6.20;;
7997;SDS011;4044;49.814;7.828;2024-03-29T08:53:15;8.57;;;7.10;;
7997;SDS011;4044;49.814;7.828;2024-03-29T08:55:41;9.87;;;7.60;;
7997;SDS011;4044;49.814;7.828;2024-03-29T08:58:06;10.80;;;7.17;;
7997;SDS011;4044;49.814;7.828;2024-03-29T09:00:32;11.73;;;7.80;;
7997;SDS011;4044;49.814;7.828;2024-03-29T09:02:58;9.47;;;8.00;;
7997;SDS011;4044;49.814;7.828;2024-03-29T09:05:25;8.83;;;7.90;;
7997;SDS011;4044;49.814;7.828;2024-03-29T09:07:52;11.30;;;8.27;;
7997;SDS011;4044;49.814;7.828;2024-03-29T09:10:18;9.83;;;7.37;;
7997;SDS011;4044;49.814;7.828;2024-03-29T09:12:43;8.47;;;7.67;;
7997;SDS011;4044;49.814;7.828;2024-03-29T09:15:09;9.20;;;7.80;;
7997;SDS011;4044;49.814;7.828;2024-03-29T09:17:41;7.73;;;6.93;;
7997;SDS011;4044;49.814;7.828;2024-03-29T09:20:07;7.37;;;6.20;;
7997;SDS011;4044;49.814;7.828;2024-03-29T09:22:33;9.57;;;7.03;;
7997;SDS011;4044;49.814;7.828;2024-03-29T09:24:59;7.67;;;6.37;;
7997;SDS011;4044;49.814;7.828;2024-03-29T09:27:26;7.30;;;6.20;;
7997;SDS011;4044;49.814;7.828;2024-03-29T09:29:52;7.93;;;6.40;;
7997;SDS011;4044;49.814;7.828;2024-03-29T09:32:19;6.60;;;5.70;;
7997;SDS011;4044;49.814;7.828;2024-03-29T09:34:46;8.80;;;6.70;;
7997;SDS011;4044;49.814;7.828;2024-03-29T09:37:11;8.60;;;6.20;;
7997;SDS011;4044;49.814;7.828;2024-03-29T09:39:38;7.97;;;5.90;;
7997;SDS011;4044;49.814;7.828;2024-03-29T09:42:04;6.47;;;5.87;;
7997;SDS011;4044;49.814;7.828;2024-03-29T09:44:32;6.87;;;5.90;;
7997;SDS011;4044;49.814;7.828;2024-03-29T09:47:04;6.53;;;5.90;;
7997;SDS011;4044;49.814;7.828;2024-03-29T09:49:31;6.20;;;5.70;;
7997;SDS011;4044;49.814;7.828;2024-03-29T09:51:57;5.40;;;4.93;;
7997;SDS011;4044;49.814;7.828;2024-03-29T09:54:24;5.80;;;4.60;;
7997;SDS011;4044;49.814;7.828;2024-03-29T09:56:53;5.30;;;4.80;;
7997;SDS011;4044;49.814;7.828;2024-03-29T09:59:22;4.97;;;4.47;;
7997;SDS011;4044;49.814;7.828;2024-03-29T10:01:49;6.40;;;4.27;;
7997;SDS011;4044;49.814;7.828;2024-03-29T10:04:16;4.57;;;3.80;;
7997;SDS011;4044;49.814;7.828;2024-03-29T10:06:46;5.03;;;3.90;;
7997;SDS011;4044;49.814;7.828;2024-03-29T10:09:15;5.30;;;3.90;;
7997;SDS011;4044;49.814;7.828;2024-03-29T10:11:43;4.43;;;3.20;;
7997;SDS011;4044;49.814;7.828;2024-03-29T10:14:09;5.57;;;3.50;;
7997;SDS011;4044;49.814;7.828;2024-03-29T10:16:35;3.77;;;3.43;;
7997;SDS011;4044;49.814;7.828;2024-03-29T10:19:00;4.80;;;3.20;;
7997;SDS011;4044;49.814;7.828;2024-03-29T10:21:27;3.27;;;2.97;;
7997;SDS011;4044;49.814;7.828;2024-03-29T10:23:53;2.50;;;2.30;;
7997;SDS011;4044;49.814;7.828;2024-03-29T10:26:18;2.83;;;2.63;;
7997;SDS011;4044;49.814;7.828;2024-03-29T10:28:46;2.60;;;2.40;;
7997;SDS011;4044;49.814;7.828;2024-03-29T10:31:12;3.33;;;2.63;;
7997;SDS011;4044;49.814;7.828;2024-03-29T10:33:39;8.27;;;2.63;;
7997;SDS011;4044;49.814;7.828;2024-03-29T10:36:07;3.70;;;2.55;;
7997;SDS011;4044;49.814;7.828;2024-03-29T10:38:34;3.60;;;2.40;;
7997;SDS011;4044;49.814;7.828;2024-03-29T10:41:01;2.72;;;2.53;;
7997;SDS011;4044;49.814;7.828;2024-03-29T10:43:28;3.78;;;2.28;;
7997;SDS011;4044;49.814;7.828;2024-03-29T10:45:55;4.03;;;2.22;;
7997;SDS011;4044;49.814;7.828;2024-03-29T10:48:25;2.50;;;2.30;;
7997;SDS011;4044;49.814;7.828;2024-03-29T10:50:52;2.40;;;2.20;;
7997;SDS011;4044;49.814;7.828;2024-03-29T10:53:19;2.38;;;2.17;;
7997;SDS011;4044;49.814;7.828;2024-03-29T10:55:48;3.45;;;2.20;;
7997;SDS011;4044;49.814;7.828;2024-03-29T10:58:17;2.00;;;1.90;;
7997;SDS011;4044;49.814;7.828;2024-03-29T11:00:45;2.78;;;1.95;;
7997;SDS011;4044;49.814;7.828;2024-03-29T11:03:13;3.10;;;2.10;;
7997;SDS011;4044;49.814;7.828;2024-03-29T11:05:50;2.33;;;2.15;;
7997;SDS011;4044;49.814;7.828;2024-03-29T11:08:21;3.55;;;2.60;;
7997;SDS011;4044;49.814;7.828;2024-03-29T11:10:52;4.13;;;2.40;;
7997;SDS011;4044;49.814;7.828;2024-03-29T11:13:38;3.45;;;2.80;;
7997;SDS011;4044;49.814;7.828;2024-03-29T11:16:05;8.25;;;3.22;;
7997;SDS011;4044;49.814;7.828;2024-03-29T11:18:30;5.43;;;3.90;;
7997;SDS011;4044;49.814;7.828;2024-03-29T11:20:57;5.82;;;3.60;;
7997;SDS011;4044;49.814;7.828;2024-03-29T11:23:25;5.30;;;3.85;;
7997;SDS011;4044;49.814;7.828;2024-03-29T11:25:52;8.90;;;5.10;;
7997;SDS011;4044;49.814;7.828;2024-03-29T11:28:23;6.27;;;4.67;;
7997;SDS011;4044;49.814;7.828;2024-03-29T11:30:56;9.90;;;5.63;;
7997;SDS011;4044;49.814;7.828;2024-03-29T11:36:11;8.67;;;4.77;;
7997;SDS011;4044;49.814;7.828;2024-03-29T11:38:38;5.37;;;3.67;;
7997;SDS011;4044;49.814;7.828;2024-03-29T11:41:05;4.77;;;3.50;;
7997;SDS011;4044;49.814;7.828;2024-03-29T11:43:35;5.23;;;4.10;;
7997;SDS011;4044;49.814;7.828;2024-03-29T11:46:01;3.60;;;3.30;;
7997;SDS011;4044;49.814;7.828;2024-03-29T11:48:30;4.10;;;3.70;;
7997;SDS011;4044;49.814;7.828;2024-03-29T11:50:59;5.00;;;3.33;;
7997;SDS011;4044;49.814;7.828;2024-03-29T11:53:25;6.43;;;3.87;;
7997;SDS011;4044;49.814;7.828;2024-03-29T11:55:53;6.07;;;3.60;;
7997;SDS011;4044;49.814;7.828;2024-03-29T11:58:22;5.53;;;4.40;;
7997;SDS011;4044;49.814;7.828;2024-03-29T12:00:48;6.57;;;4.33;;
7997;SDS011;4044;49.814;7.828;2024-03-29T12:03:15;8.60;;;5.53;;
7997;SDS011;4044;49.814;7.828;2024-03-29T12:05:42;11.63;;;6.10;;
7997;SDS011;4044;49.814;7.828;2024-03-29T12:08:12;13.10;;;7.50;;
7997;SDS011;4044;49.814;7.828;2024-03-29T12:10:37;7.17;;;6.47;;
7997;SDS011;4044;49.814;7.828;2024-03-29T12:13:07;6.90;;;6.03;;
7997;SDS011;4044;49.814;7.828;2024-03-29T12:15:33;7.70;;;6.13;;
7997;SDS011;4044;49.814;7.828;2024-03-29T12:18:00;8.50;;;6.13;;
7997;SDS011;4044;49.814;7.828;2024-03-29T12:20:33;7.47;;;5.50;;
7997;SDS011;4044;49.814;7.828;2024-03-29T12:23:02;5.93;;;5.13;;
7997;SDS011;4044;49.814;7.828;2024-03-29T12:25:29;6.97;;;4.63;;
7997;SDS011;4044;49.814;7.828;2024-03-29T12:27:57;4.40;;;3.90;;
7997;SDS011;4044;49.814;7.828;2024-03-29T12:30:23;6.03;;;4.10;;
7997;SDS011;4044;49.814;7.828;2024-03-29T12:32:59;5.03;;;3.67;;
7997;SDS011;4044;49.814;7.828;2024-03-29T12:35:28;4.60;;;2.50;;
7997;SDS011;4044;49.814;7.828;2024-03-29T12:37:57;3.47;;;2.90;;
7997;SDS011;4044;49.814;7.828;2024-03-29T12:40:28;5.10;;;2.80;;
7997;SDS011;4044;49.814;7.828;2024-03-29T12:42:57;5.47;;;2.70;;
7997;SDS011;4044;49.814;7.828;2024-03-29T12:45:23;5.20;;;2.67;;
7997;SDS011;4044;49.814;7.828;2024-03-29T12:47:49;4.63;;;3.08;;
7997;SDS011;4044;49.814;7.828;2024-03-29T12:50:31;6.07;;;4.90;;
7997;SDS011;4044;49.814;7.828;2024-03-29T12:52:58;3.42;;;2.78;;
7997;SDS011;4044;49.814;7.828;2024-03-29T12:55:27;6.03;;;4.40;;
7997;SDS011;4044;49.814;7.828;2024-03-29T12:57:55;3.72;;;2.15;;
7997;SDS011;4044;49.814;7.828;2024-03-29T13:00:22;4.13;;;1.73;;
7997;SDS011;4044;49.814;7.828;2024-03-29T13:02:48;3.53;;;1.52;;
7997;SDS011;4044;49.814;7.828;2024-03-29T13:05:14;3.92;;;1.50;;
7997;SDS011;4044;49.814;7.828;2024-03-29T13:07:40;1.90;;;1.80;;
7997;SDS011;4044;49.814;7.828;2024-03-29T13:10:06;1.65;;;1.55;;
7997;SDS011;4044;49.814;7.828;2024-03-29T13:12:38;1.70;;;1.60;;
7997;SDS011;4044;49.814;7.828;2024-03-29T13:15:21;2.38;;;1.88;;
7997;SDS011;4044;49.814;7.828;2024-03-29T13:17:50;10.05;;;9.07;;
7997;SDS011;4044;49.814;7.828;2024-03-29T13:20:16;4.45;;;3.20;;
7997;SDS011;4044;49.814;7.828;2024-03-29T13:22:43;4.95;;;4.53;;
7997;SDS011;4044;49.814;7.828;2024-03-29T13:25:10;9.82;;;6.05;;
7997;SDS011;4044;49.814;7.828;2024-03-29T13:27:40;3.15;;;2.92;;
7997;SDS011;4044;49.814;7.828;2024-03-29T13:30:06;3.38;;;2.00;;
7997;SDS011;4044;49.814;7.828;2024-03-29T13:32:36;1.77;;;1.67;;
7997;SDS011;4044;49.814;7.828;2024-03-29T13:35:04;5.65;;;5.25;;
7997;SDS011;4044;49.814;7.828;2024-03-29T13:37:33;4.93;;;4.53;;
7997;SDS011;4044;49.814;7.828;2024-03-29T13:39:59;7.00;;;6.35;;
7997;SDS011;4044;49.814;7.828;2024-03-29T13:42:25;6.68;;;6.07;;
7997;SDS011;4044;49.814;7.828;2024-03-29T13:44:50;2.70;;;2.50;;
7997;SDS011;4044;49.814;7.828;2024-03-29T13:47:17;1.83;;;1.73;;
7997;SDS011;4044;49.814;7.828;2024-03-29T13:49:43;6.18;;;3.10;;
7997;SDS011;4044;49.814;7.828;2024-03-29T13:52:09;3.22;;;2.72;;
7997;SDS011;4044;49.814;7.828;2024-03-29T13:54:35;1.88;;;1.77;;
7997;SDS011;4044;49.814;7.828;2024-03-29T13:57:01;2.45;;;1.92;;
7997;SDS011;4044;49.814;7.828;2024-03-29T13:59:28;1.48;;;1.38;;
7997;SDS011;4044;49.814;7.828;2024-03-29T14:01:54;2.55;;;2.13;;
7997;SDS011;4044;49.814;7.828;2024-03-29T14:04:20;1.20;;;1.10;;
7997;SDS011;4044;49.814;7.828;2024-03-29T14:06:45;1.23;;;1.10;;
7997;SDS011;4044;49.814;7.828;2024-03-29T14:09:11;2.05;;;1.90;;
7997;SDS011;4044;49.814;7.828;2024-03-29T14:11:37;6.38;;;5.88;;
7997;SDS011;4044;49.814;7.828;2024-03-29T14:14:02;0.80;;;0.80;;
7997;SDS011;4044;49.814;7.828;2024-03-29T14:16:28;2.33;;;0.90;;
7997;SDS011;4044;49.814;7.828;2024-03-29T14:18:54;1.65;;;0.73;;
7997;SDS011;4044;49.814;7.828;2024-03-29T14:21:19;0.77;;;0.77;;
7997;SDS011;4044;49.814;7.828;2024-03-29T14:23:45;1.20;;;0.60;;
7997;SDS011;4044;49.814;7.828;2024-03-29T14:26:10;0.80;;;0.80;;
7997;SDS011;4044;49.814;7.828;2024-03-29T14:28:36;0.60;;;0.60;;
7997;SDS011;4044;49.814;7.828;2024-03-29T14:31:01;1.40;;;0.70;;
7997;SDS011;4044;49.814;7.828;2024-03-29T14:33:27;1.17;;;0.63;;
7997;SDS011;4044;49.814;7.828;2024-03-29T14:35:52;0.75;;;0.75;;
7997;SDS011;4044;49.814;7.828;2024-03-29T14:38:18;0.63;;;0.60;;
7997;SDS011;4044;49.814;7.828;2024-03-29T14:40:46;0.50;;;0.47;;
7997;SDS011;4044;49.814;7.828;2024-03-29T14:43:11;1.13;;;0.70;;
7997;SDS011;4044;49.814;7.828;2024-03-29T14:45:39;1.58;;;0.85;;
7997;SDS011;4044;49.814;7.828;2024-03-29T14:48:05;1.20;;;1.10;;
7997;SDS011;4044;49.814;7.828;2024-03-29T14:50:31;0.90;;;0.90;;
7997;SDS011;4044;49.814;7.828;2024-03-29T14:52:56;2.35;;;0.70;;
7997;SDS011;4044;49.814;7.828;2024-03-29T14:55:22;0.70;;;0.70;;
7997;SDS011;4044;49.814;7.828;2024-03-29T14:57:48;0.88;;;0.65;;
7997;SDS011;4044;49.814;7.828;2024-03-29T15:00:14;1.00;;;0.50;;
7997;SDS011;4044;49.814;7.828;2024-03-29T15:02:40;0.65;;;0.65;;
7997;SDS011;4044;49.814;7.828;2024-03-29T15:05:07;0.55;;;0.55;;
7997;SDS011;4044;49.814;7.828;2024-03-29T15:07:36;2.42;;;0.80;;
7997;SDS011;4044;49.814;7.828;2024-03-29T15:10:02;0.70;;;0.70;;
7997;SDS011;4044;49.814;7.828;2024-03-29T15:12:35;1.13;;;0.55;;
7997;SDS011;4044;49.814;7.828;2024-03-29T15:15:01;0.70;;;0.60;;